createdAt,value
2022-12-07T00:01:10.528Z,7.10
2022-12-07T00:03:13.381Z,7.00
2022-12-07T00:05:16.295Z,7.00
2022-12-07T00:07:22.470Z,7.10
2022-12-07T00:09:27.729Z,7.10
2022-12-07T00:11:32.014Z,7.10
2022-12-07T00:13:36.194Z,7.10
2022-12-07T00:15:39.011Z,7.10
2022-12-07T00:17:41.816Z,7.10
2022-12-07T00:19:44.634Z,7.10
2022-12-07T00:21:47.547Z,7.10
2022-12-07T00:23:52.001Z,7.10
2022-12-07T00:25:54.884Z,7.10
2022-12-07T00:27:59.301Z,7.10
2022-12-07T00:30:02.306Z,7.10
2022-12-07T00:32:05.903Z,7.20
2022-12-07T00:34:09.598Z,7.20
2022-12-07T00:36:14.558Z,7.20
2022-12-07T00:38:17.397Z,7.30
2022-12-07T00:40:20.223Z,7.30
2022-12-07T00:42:23.064Z,7.30
2022-12-07T00:44:27.191Z,7.30
2022-12-07T00:46:31.325Z,7.30
2022-12-07T00:48:34.339Z,7.30
2022-12-07T00:50:37.226Z,7.30
2022-12-07T00:52:40.027Z,7.30
2022-12-07T00:54:42.960Z,7.30
2022-12-07T00:56:45.738Z,7.30
2022-12-07T00:58:52.970Z,7.30
2022-12-07T01:01:02.446Z,7.30
2022-12-07T01:03:05.733Z,7.20
2022-12-07T01:05:09.600Z,7.20
2022-12-07T01:07:12.566Z,7.30
2022-12-07T01:09:15.413Z,7.30
2022-12-07T01:11:20.690Z,7.30
2022-12-07T01:13:23.467Z,7.30
2022-12-07T01:15:26.552Z,7.30
2022-12-07T01:17:31.314Z,7.20
2022-12-07T01:19:34.119Z,7.10
2022-12-07T01:21:38.680Z,7.10
2022-12-07T01:23:41.879Z,7.20
2022-12-07T01:25:45.880Z,7.20
2022-12-07T01:27:48.704Z,7.20
2022-12-07T01:29:53.135Z,7.20
2022-12-07T01:31:55.932Z,7.20
2022-12-07T01:34:01.616Z,7.20
2022-12-07T01:36:05.428Z,7.20
2022-12-07T01:38:08.294Z,7.20
2022-12-07T01:40:12.719Z,7.10
2022-12-07T01:42:15.578Z,7.10
2022-12-07T01:44:22.039Z,7.10
2022-12-07T01:46:24.945Z,7.20
2022-12-07T01:48:32.540Z,7.20
2022-12-07T01:50:37.917Z,7.20
2022-12-07T01:52:43.632Z,7.20
2022-12-07T01:54:47.537Z,7.20
2022-12-07T01:56:53.887Z,7.10
2022-12-07T01:58:57.744Z,7.20
2022-12-07T02:01:00.713Z,7.20
2022-12-07T02:03:10.919Z,7.20
2022-12-07T02:05:14.611Z,7.20
2022-12-07T02:07:19.021Z,7.20
2022-12-07T02:09:21.874Z,7.30
2022-12-07T02:11:25.026Z,7.20
2022-12-07T02:13:31.538Z,7.10
2022-12-07T02:15:45.223Z,7.00
2022-12-07T02:17:56.594Z,7.00
2022-12-07T02:20:13.385Z,7.10
2022-12-07T02:22:38.662Z,7.10
2022-12-07T02:24:54.662Z,7.20
2022-12-07T02:27:21.674Z,7.20
2022-12-07T02:29:28.993Z,7.20
2022-12-07T02:31:33.406Z,7.20
2022-12-07T02:33:38.967Z,7.20
2022-12-07T02:35:44.636Z,7.20
2022-12-07T02:37:57.696Z,7.20
2022-12-07T02:40:05.692Z,7.20
2022-12-07T02:42:15.430Z,7.00
2022-12-07T02:44:22.201Z,6.90
2022-12-07T02:46:30.881Z,6.90
2022-12-07T02:48:34.983Z,6.90
2022-12-07T02:50:37.880Z,6.80
2022-12-07T02:52:40.685Z,6.50
2022-12-07T02:54:43.508Z,6.60
2022-12-07T02:56:50.631Z,6.60
2022-12-07T02:59:03.155Z,6.50
2022-12-07T03:01:15.553Z,6.50
2022-12-07T03:03:19.850Z,6.50
2022-12-07T03:05:41.690Z,6.60
2022-12-07T03:07:53.447Z,6.70
2022-12-07T03:10:03.642Z,6.60
2022-12-07T03:12:15.092Z,6.60
2022-12-07T03:14:22.086Z,6.70
2022-12-07T03:16:29.614Z,6.20
2022-12-07T03:18:39.966Z,6.30
2022-12-07T03:20:45.801Z,6.40
2022-12-07T03:22:49.625Z,6.40
2022-12-07T03:24:55.214Z,6.30
2022-12-07T03:27:04.685Z,6.40
2022-12-07T03:29:13.784Z,6.50
2022-12-07T03:31:21.075Z,6.50
2022-12-07T03:33:28.093Z,6.50
2022-12-07T03:35:37.040Z,6.30
2022-12-07T03:37:45.461Z,6.20
2022-12-07T03:39:58.293Z,6.50
2022-12-07T03:42:04.593Z,6.60
2022-12-07T03:44:08.457Z,6.50
2022-12-07T03:46:22.626Z,6.70
2022-12-07T03:48:30.145Z,6.60
2022-12-07T03:50:43.287Z,6.70
2022-12-07T03:52:52.448Z,6.60
2022-12-07T03:54:59.997Z,6.30
2022-12-07T03:57:04.610Z,6.30
2022-12-07T03:59:08.971Z,6.00
2022-12-07T04:01:13.369Z,6.10
2022-12-07T04:03:16.235Z,6.20
2022-12-07T04:05:19.193Z,6.10
2022-12-07T04:07:23.427Z,6.30
2022-12-07T04:09:26.537Z,6.50
2022-12-07T04:11:29.462Z,6.60
2022-12-07T04:13:52.295Z,6.70
2022-12-07T04:15:55.193Z,6.90
2022-12-07T04:17:58.099Z,6.70
2022-12-07T04:20:01.286Z,7.00
2022-12-07T04:22:06.336Z,7.10
2022-12-07T04:24:11.205Z,6.80
2022-12-07T04:26:14.014Z,6.80
2022-12-07T04:28:16.894Z,6.70
2022-12-07T04:30:20.075Z,6.50
2022-12-07T04:32:22.977Z,6.40
2022-12-07T04:34:25.815Z,6.50
2022-12-07T04:36:28.703Z,6.50
2022-12-07T04:38:31.600Z,6.40
2022-12-07T04:40:36.303Z,6.30
2022-12-07T04:42:39.249Z,6.30
2022-12-07T04:44:42.154Z,6.50
2022-12-07T04:46:45.577Z,5.80
2022-12-07T04:48:48.516Z,6.00
2022-12-07T04:50:51.465Z,6.20
2022-12-07T04:52:54.299Z,6.20
2022-12-07T04:54:57.112Z,6.40
2022-12-07T04:57:01.783Z,6.60
2022-12-07T04:59:05.426Z,6.50
2022-12-07T05:01:08.410Z,6.70
2022-12-07T05:03:11.316Z,6.50
2022-12-07T05:05:14.105Z,6.10
2022-12-07T05:07:16.993Z,6.30
2022-12-07T05:09:20.070Z,6.40
2022-12-07T05:11:41.331Z,6.40
2022-12-07T05:13:45.649Z,6.50
2022-12-07T05:15:48.956Z,6.50
2022-12-07T05:17:53.348Z,6.20
2022-12-07T05:19:56.145Z,6.10
2022-12-07T05:21:59.092Z,6.20
2022-12-07T05:24:02.456Z,6.20
2022-12-07T05:26:05.311Z,6.10
2022-12-07T05:28:08.219Z,6.10
2022-12-07T05:30:13.538Z,6.40
2022-12-07T05:32:16.335Z,6.50
2022-12-07T05:34:19.171Z,6.50
2022-12-07T05:36:22.006Z,6.50
2022-12-07T05:38:25.854Z,6.70
2022-12-07T05:40:28.696Z,6.80
2022-12-07T05:42:31.498Z,7.00
2022-12-07T05:44:34.349Z,7.30
2022-12-07T05:46:38.585Z,7.20
2022-12-07T05:48:41.436Z,7.20
2022-12-07T05:50:44.259Z,7.10
2022-12-07T05:52:47.067Z,7.10
2022-12-07T05:54:49.890Z,7.30
2022-12-07T05:56:52.869Z,7.30
2022-12-07T05:59:13.792Z,6.90
2022-12-07T06:01:16.656Z,7.00
2022-12-07T06:03:21.026Z,7.10
2022-12-07T06:05:24.152Z,7.10
2022-12-07T06:07:27.036Z,7.00
2022-12-07T06:09:30.763Z,7.10
2022-12-07T06:11:51.329Z,7.10
2022-12-07T06:13:54.182Z,6.70
2022-12-07T06:15:57.038Z,6.70
2022-12-07T06:17:59.863Z,6.50
2022-12-07T06:20:04.874Z,6.60
2022-12-07T06:22:08.430Z,6.70
2022-12-07T06:24:12.802Z,6.60
2022-12-07T06:26:16.006Z,6.60
2022-12-07T06:28:18.900Z,6.60
2022-12-07T06:30:21.883Z,6.20
2022-12-07T06:32:24.712Z,6.30
2022-12-07T06:34:28.577Z,6.50
2022-12-07T06:36:32.755Z,6.70
2022-12-07T06:38:35.593Z,6.60
2022-12-07T06:40:38.443Z,6.60
2022-12-07T06:42:41.261Z,6.80
2022-12-07T06:44:44.090Z,7.00
2022-12-07T06:46:46.911Z,6.80
2022-12-07T06:48:49.818Z,6.70
2022-12-07T06:50:54.984Z,6.90
2022-12-07T06:52:59.695Z,6.60
2022-12-07T06:55:02.565Z,6.50
2022-12-07T06:57:05.407Z,6.70
2022-12-07T06:59:09.105Z,6.70
2022-12-07T07:01:13.494Z,6.40
2022-12-07T07:03:16.381Z,6.70
2022-12-07T07:05:19.205Z,6.50
2022-12-07T07:07:22.078Z,6.30
2022-12-07T07:09:27.151Z,6.30
2022-12-07T07:11:29.970Z,6.40
2022-12-07T07:13:33.127Z,6.50
2022-12-07T07:15:36.501Z,6.60
2022-12-07T07:17:39.366Z,6.70
2022-12-07T07:19:42.170Z,6.90
2022-12-07T07:21:45.063Z,6.90
2022-12-07T07:23:47.949Z,6.90
2022-12-07T07:25:52.149Z,6.70
2022-12-07T07:27:54.994Z,6.70
2022-12-07T07:29:57.832Z,6.90
2022-12-07T07:32:06.453Z,7.00
2022-12-07T07:34:09.825Z,7.00
2022-12-07T07:36:12.617Z,6.80
2022-12-07T07:38:15.588Z,6.80
2022-12-07T07:40:18.896Z,6.60
2022-12-07T07:42:23.161Z,6.50
2022-12-07T07:44:30.234Z,6.40
2022-12-07T07:46:36.196Z,6.40
2022-12-07T07:48:39.081Z,6.20
2022-12-07T07:50:41.908Z,6.60
2022-12-07T07:52:45.129Z,6.30
2022-12-07T07:54:47.944Z,6.40
2022-12-07T07:56:50.751Z,6.20
2022-12-07T07:58:55.874Z,6.30
2022-12-07T08:00:58.885Z,6.40
2022-12-07T08:03:01.746Z,6.20
2022-12-07T08:05:05.037Z,6.30
2022-12-07T08:07:07.944Z,6.30
2022-12-07T08:09:11.267Z,6.30
2022-12-07T08:11:14.312Z,6.00
2022-12-07T08:13:17.748Z,6.30
2022-12-07T08:15:21.864Z,6.30
2022-12-07T08:17:24.898Z,6.30
2022-12-07T08:19:27.793Z,6.40
2022-12-07T08:21:30.581Z,6.30
2022-12-07T08:23:39.552Z,6.40
2022-12-07T08:25:42.795Z,6.40
2022-12-07T08:27:45.641Z,6.50
2022-12-07T08:29:48.481Z,6.10
2022-12-07T08:31:52.668Z,6.30
2022-12-07T08:33:55.853Z,6.20
2022-12-07T08:36:02.563Z,6.20
2022-12-07T08:38:05.703Z,6.20
2022-12-07T08:40:11.159Z,6.20
2022-12-07T08:42:13.939Z,6.30
2022-12-07T08:44:17.441Z,6.20
2022-12-07T08:46:23.864Z,6.20
2022-12-07T08:48:28.327Z,6.50
2022-12-07T08:50:31.459Z,6.20
2022-12-07T08:52:35.681Z,6.00
2022-12-07T08:54:40.839Z,6.10
2022-12-07T08:56:44.704Z,5.70
2022-12-07T08:58:47.656Z,5.80
2022-12-07T09:00:50.490Z,6.00
2022-12-07T09:02:53.336Z,6.00
2022-12-07T09:04:57.478Z,6.20
2022-12-07T09:07:00.892Z,6.10
2022-12-07T09:09:04.908Z,6.10
2022-12-07T09:11:07.760Z,6.20
2022-12-07T09:13:10.622Z,6.40
2022-12-07T09:15:13.389Z,6.40
2022-12-07T09:17:16.238Z,6.10
2022-12-07T09:19:19.226Z,6.40
2022-12-07T09:21:23.413Z,6.40
2022-12-07T09:23:26.378Z,6.50
2022-12-07T09:25:29.179Z,6.80
2022-12-07T09:27:32.374Z,6.80
2022-12-07T09:29:35.220Z,6.90
2022-12-07T09:31:39.406Z,6.80
2022-12-07T09:33:42.559Z,6.90
2022-12-07T09:35:47.384Z,6.90
2022-12-07T09:37:51.720Z,6.80
2022-12-07T09:39:54.568Z,6.70
2022-12-07T09:41:59.523Z,6.80
2022-12-07T09:44:06.935Z,6.70
2022-12-07T09:46:17.835Z,6.80
2022-12-07T09:48:23.736Z,6.30
2022-12-07T09:50:29.142Z,6.50
2022-12-07T09:52:38.507Z,6.60
2022-12-07T09:54:47.736Z,6.30
2022-12-07T09:56:50.624Z,6.60
2022-12-07T09:59:02.628Z,6.80
2022-12-07T10:01:14.485Z,6.90
2022-12-07T10:03:17.381Z,6.90
2022-12-07T10:05:25.568Z,6.30
2022-12-07T10:07:28.449Z,6.40
2022-12-07T10:09:35.735Z,6.40
2022-12-07T10:12:05.356Z,6.50
2022-12-07T10:14:15.187Z,6.50
2022-12-07T10:16:40.021Z,6.60
2022-12-07T10:18:43.591Z,6.70
2022-12-07T10:20:47.396Z,6.90
2022-12-07T10:23:06.765Z,7.00
2022-12-07T10:25:20.780Z,6.80
2022-12-07T10:27:32.762Z,6.80
2022-12-07T10:29:38.511Z,7.10
2022-12-07T10:31:42.198Z,7.00
2022-12-07T10:33:52.531Z,7.00
2022-12-07T10:35:55.328Z,7.10
2022-12-07T10:37:59.963Z,7.10
2022-12-07T10:40:02.734Z,7.20
2022-12-07T10:42:06.982Z,6.70
2022-12-07T10:44:23.666Z,6.90
2022-12-07T10:47:14.679Z,6.90
2022-12-07T10:50:00.293Z,7.10
2022-12-07T10:52:12.747Z,7.10
2022-12-07T10:54:23.860Z,6.90
2022-12-07T10:56:52.722Z,6.70
2022-12-07T10:59:09.116Z,6.80
2022-12-07T11:01:20.805Z,6.80
2022-12-07T11:03:41.835Z,6.50
2022-12-07T11:05:52.706Z,6.90
2022-12-07T11:08:05.114Z,7.20
2022-12-07T11:10:14.468Z,7.30
2022-12-07T11:12:26.149Z,7.40
2022-12-07T11:14:36.678Z,7.80
2022-12-07T11:16:54.655Z,7.80
2022-12-07T11:19:15.220Z,7.80
2022-12-07T11:21:25.856Z,7.50
2022-12-07T11:23:35.268Z,7.40
2022-12-07T11:25:46.868Z,7.50
2022-12-07T11:27:59.331Z,7.40
2022-12-07T11:30:13.287Z,7.10
2022-12-07T11:32:23.867Z,6.90
2022-12-07T11:34:36.553Z,7.00
2022-12-07T11:36:42.958Z,6.90
2022-12-07T11:38:52.649Z,7.00
2022-12-07T11:41:13.515Z,6.90
2022-12-07T11:43:23.472Z,6.50
2022-12-07T11:45:28.859Z,6.70
2022-12-07T11:47:43.091Z,6.90
2022-12-07T11:49:52.887Z,6.80
2022-12-07T11:52:00.642Z,6.70
2022-12-07T11:54:07.356Z,6.70
2022-12-07T11:56:13.964Z,6.80
2022-12-07T11:58:28.649Z,6.50
2022-12-07T12:00:31.497Z,6.40
2022-12-07T12:02:43.387Z,6.60
2022-12-07T12:04:55.950Z,6.60
2022-12-07T12:16:57.543Z,7.50
2022-12-07T12:19:15.701Z,7.60
2022-12-07T12:21:20.137Z,7.60
2022-12-07T12:23:26.828Z,7.60
2022-12-07T12:25:33.685Z,7.20
2022-12-07T12:27:39.466Z,6.70
2022-12-07T12:29:44.783Z,6.80
2022-12-07T12:31:50.212Z,6.60
2022-12-07T12:33:55.154Z,6.80
2022-12-07T12:36:21.663Z,6.70
2022-12-07T12:38:32.573Z,6.80
2022-12-07T12:40:50.857Z,7.00
2022-12-07T12:42:56.408Z,6.80
2022-12-07T12:45:21.444Z,6.70
2022-12-07T12:47:56.613Z,6.90
2022-12-07T12:50:22.243Z,7.00
2022-12-07T12:53:02.846Z,7.10
2022-12-07T12:55:19.838Z,7.00
2022-12-07T12:57:29.044Z,7.30
2022-12-07T12:59:33.620Z,7.20
2022-12-07T13:01:44.036Z,7.00
2022-12-07T13:03:54.912Z,7.00
2022-12-07T13:06:22.687Z,7.20
2022-12-07T13:08:33.529Z,7.00
2022-12-07T13:10:44.617Z,7.10
2022-12-07T13:12:57.936Z,7.10
2022-12-07T13:15:01.442Z,7.50
2022-12-07T13:17:04.759Z,7.40
2022-12-07T13:19:41.018Z,7.40
2022-12-07T13:21:45.254Z,7.30
2022-12-07T13:23:59.818Z,7.20
2022-12-07T13:26:21.504Z,6.80
2022-12-07T13:28:27.865Z,6.90
2022-12-07T13:30:32.354Z,7.30
2022-12-07T13:32:36.532Z,6.80
2022-12-07T13:34:41.461Z,7.10
2022-12-07T13:36:47.003Z,7.10
2022-12-07T13:38:59.476Z,6.70
2022-12-07T13:41:04.537Z,7.10
2022-12-07T13:43:16.236Z,7.30
2022-12-07T13:45:45.988Z,7.10
2022-12-07T13:47:54.050Z,7.50
2022-12-07T13:49:58.398Z,7.50
2022-12-07T13:52:18.121Z,7.40
2022-12-07T13:54:23.308Z,7.30
2022-12-07T13:56:30.288Z,7.20
2022-12-07T13:58:34.879Z,7.10
2022-12-07T14:00:37.725Z,7.30
2022-12-07T14:02:57.952Z,7.30
2022-12-07T14:05:10.124Z,7.20
2022-12-07T14:07:24.055Z,7.20
2022-12-07T14:09:30.038Z,7.00
2022-12-07T14:11:33.168Z,6.80
2022-12-07T14:13:40.086Z,6.90
2022-12-07T14:15:42.931Z,7.00
2022-12-07T14:17:53.273Z,7.20
2022-12-07T14:19:57.624Z,6.90
2022-12-07T14:22:09.235Z,7.10
2022-12-07T14:24:17.288Z,6.40
2022-12-07T14:26:22.775Z,6.60
2022-12-07T14:28:30.508Z,6.70
2022-12-07T14:30:35.791Z,6.70
2022-12-07T14:32:41.052Z,7.00
2022-12-07T14:34:43.939Z,7.10
2022-12-07T14:36:46.696Z,7.10
2022-12-07T14:38:49.520Z,7.20
2022-12-07T14:40:53.494Z,7.10
2022-12-07T14:43:01.943Z,7.20
2022-12-07T14:45:05.817Z,7.20
2022-12-07T14:49:34.088Z,7.30
2022-12-07T14:54:03.971Z,7.20
2022-12-07T14:56:07.829Z,7.00
2022-12-07T14:58:16.497Z,6.90
2022-12-07T15:00:21.238Z,7.00
2022-12-07T15:02:24.079Z,7.10
2022-12-07T15:04:27.050Z,7.00
2022-12-07T15:06:29.876Z,7.00
2022-12-07T15:08:32.747Z,6.90
2022-12-07T15:10:39.574Z,7.10
2022-12-07T15:12:42.397Z,6.80
2022-12-07T15:14:46.527Z,6.80
2022-12-07T15:19:27.981Z,6.90
2022-12-07T15:21:31.644Z,6.80
2022-12-07T15:23:34.461Z,6.90
2022-12-07T15:25:37.348Z,6.80
2022-12-07T15:27:40.173Z,6.90
2022-12-07T15:29:43.040Z,7.00
2022-12-07T15:31:55.912Z,6.80
2022-12-07T15:34:00.472Z,7.00
2022-12-07T15:36:03.266Z,7.00
2022-12-07T15:38:06.160Z,7.20
2022-12-07T15:40:10.364Z,7.40
2022-12-07T15:42:13.159Z,7.50
2022-12-07T15:44:34.095Z,7.60
2022-12-07T15:46:39.293Z,7.60
2022-12-07T15:48:43.545Z,7.50
2022-12-07T15:50:46.403Z,7.30
2022-12-07T15:52:49.211Z,7.10
2022-12-07T15:54:52.002Z,7.20
2022-12-07T15:56:55.523Z,7.10
2022-12-07T15:58:58.511Z,7.10
2022-12-07T16:01:01.324Z,6.90
2022-12-07T16:03:04.269Z,7.10
2022-12-07T16:05:08.934Z,7.10
2022-12-07T16:07:12.568Z,7.30
2022-12-07T16:09:15.402Z,7.30
2022-12-07T16:11:18.163Z,7.20
2022-12-07T16:13:21.968Z,7.00
2022-12-07T16:15:25.449Z,6.80
2022-12-07T16:17:28.249Z,6.90
2022-12-07T16:19:31.046Z,6.70
2022-12-07T16:21:36.527Z,7.10
2022-12-07T16:23:39.377Z,7.20
2022-12-07T16:25:42.393Z,7.30
2022-12-07T16:27:45.299Z,7.20
2022-12-07T16:29:48.164Z,7.00
2022-12-07T16:31:52.513Z,7.30
2022-12-07T16:33:57.274Z,7.50
2022-12-07T16:36:00.609Z,7.70
2022-12-07T16:38:04.757Z,7.80
2022-12-07T16:40:08.835Z,7.90
2022-12-07T16:42:11.671Z,8.00
2022-12-07T16:44:14.954Z,7.90
2022-12-07T16:46:18.019Z,7.70
2022-12-07T16:48:21.010Z,7.60
2022-12-07T16:50:23.819Z,7.50
2022-12-07T16:52:26.832Z,7.50
2022-12-07T16:54:33.976Z,7.60
2022-12-07T16:56:36.764Z,7.50
2022-12-07T16:58:39.654Z,7.60
2022-12-07T17:00:43.625Z,7.70
2022-12-07T17:02:46.658Z,7.80
2022-12-07T17:04:49.513Z,7.70
2022-12-07T17:06:52.402Z,7.60
2022-12-07T17:08:56.816Z,7.70
2022-12-07T17:11:00.950Z,7.80
2022-12-07T17:13:23.985Z,7.80
2022-12-07T17:15:25.838Z,7.70
2022-12-07T17:17:28.656Z,7.60
2022-12-07T17:19:31.528Z,7.60
2022-12-07T17:21:34.667Z,7.70
2022-12-07T17:23:38.596Z,7.50
2022-12-07T17:25:41.414Z,7.10
2022-12-07T17:27:46.101Z,7.00
2022-12-07T17:29:48.934Z,7.10
2022-12-07T17:31:52.253Z,7.00
2022-12-07T17:33:55.248Z,7.10
2022-12-07T17:35:58.061Z,7.10
2022-12-07T17:38:00.846Z,6.90
2022-12-07T17:40:04.326Z,7.10
2022-12-07T17:42:25.174Z,7.00
2022-12-07T17:44:30.172Z,7.10
2022-12-07T17:46:33.350Z,6.90
2022-12-07T17:48:36.231Z,6.90
2022-12-07T17:50:58.306Z,7.10
2022-12-07T17:53:13.258Z,7.20
2022-12-07T17:55:16.111Z,7.30
2022-12-07T17:57:19.421Z,7.40
2022-12-07T17:59:22.285Z,7.50
2022-12-07T18:01:32.902Z,7.60
2022-12-07T18:03:37.505Z,7.50
2022-12-07T18:05:44.152Z,7.30
2022-12-07T18:07:46.991Z,7.20
2022-12-07T18:09:49.860Z,7.00
2022-12-07T18:11:52.753Z,7.00
2022-12-07T18:13:55.857Z,6.60
2022-12-07T18:15:59.475Z,6.60
2022-12-07T18:18:04.248Z,6.40
2022-12-07T18:20:08.535Z,6.30
2022-12-07T18:22:11.369Z,6.40
2022-12-07T18:24:16.841Z,6.50
2022-12-07T18:26:20.881Z,6.70
2022-12-07T18:28:23.706Z,6.80
2022-12-07T18:30:49.488Z,6.70
2022-12-07T18:32:49.330Z,6.80
2022-12-07T18:34:54.087Z,6.90
2022-12-07T18:36:57.102Z,6.90
2022-12-07T18:38:59.944Z,6.90
2022-12-07T18:41:03.935Z,6.90
2022-12-07T18:43:07.852Z,7.00
2022-12-07T18:45:11.488Z,6.90
2022-12-07T18:47:14.332Z,7.00
2022-12-07T18:49:17.172Z,7.00
2022-12-07T18:51:21.448Z,7.00
2022-12-07T18:53:24.303Z,6.90
2022-12-07T18:55:28.057Z,7.00
2022-12-07T18:57:33.785Z,7.10
2022-12-07T18:59:49.610Z,7.30
2022-12-07T19:01:55.111Z,7.50
2022-12-07T19:03:58.479Z,7.60
2022-12-07T19:06:06.928Z,7.50
2022-12-07T19:08:11.154Z,7.50
2022-12-07T19:10:15.454Z,7.50
2022-12-07T19:12:18.307Z,7.50
2022-12-07T19:14:24.590Z,7.50
2022-12-07T19:16:28.017Z,7.40
2022-12-07T19:18:30.995Z,7.40
2022-12-07T19:20:34.641Z,7.40
2022-12-07T19:22:37.771Z,7.40
2022-12-07T19:24:43.639Z,7.10
2022-12-07T19:26:47.241Z,7.30
2022-12-07T19:28:51.259Z,7.30
2022-12-07T19:30:54.596Z,7.40
2022-12-07T19:32:57.499Z,7.50
2022-12-07T19:35:00.668Z,7.40
2022-12-07T19:37:03.595Z,7.10
2022-12-07T19:39:12.922Z,7.10
2022-12-07T19:41:39.201Z,7.00
2022-12-07T19:43:42.245Z,7.00
2022-12-07T19:45:45.337Z,7.00
2022-12-07T19:47:48.763Z,6.90
2022-12-07T19:49:51.561Z,7.00
2022-12-07T19:51:56.800Z,7.00
2022-12-07T19:54:00.922Z,7.10
2022-12-07T19:56:03.719Z,7.30
2022-12-07T19:58:08.640Z,7.40
2022-12-07T20:00:12.371Z,7.40
2022-12-07T20:02:16.237Z,7.50
2022-12-07T20:04:21.796Z,7.60
2022-12-07T20:06:25.380Z,7.60
2022-12-07T20:08:28.427Z,7.60
2022-12-07T20:10:34.406Z,7.70
2022-12-07T20:12:51.943Z,7.50
2022-12-07T20:14:56.130Z,7.50
2022-12-07T20:16:59.610Z,7.60
2022-12-07T20:19:02.587Z,7.70
2022-12-07T20:21:05.548Z,7.80
2022-12-07T20:23:08.434Z,7.80
2022-12-07T20:25:11.404Z,7.70
2022-12-07T20:27:14.492Z,7.30
2022-12-07T20:29:19.153Z,7.40
2022-12-07T20:31:23.428Z,7.20
2022-12-07T20:33:26.559Z,7.30
2022-12-07T20:35:30.219Z,7.50
2022-12-07T20:37:33.284Z,7.40
2022-12-07T20:39:36.069Z,7.40
2022-12-07T20:41:58.355Z,7.50
2022-12-07T20:44:01.891Z,7.60
2022-12-07T20:46:04.750Z,7.40
2022-12-07T20:48:09.047Z,7.40
2022-12-07T20:50:12.376Z,7.50
2022-12-07T20:52:15.453Z,7.50
2022-12-07T20:54:19.045Z,7.60
2022-12-07T20:56:23.438Z,7.70
2022-12-07T20:58:28.646Z,7.70
2022-12-07T21:00:31.732Z,7.70
2022-12-07T21:02:35.127Z,7.60
2022-12-07T21:04:39.400Z,7.50
2022-12-07T21:06:42.945Z,7.40
2022-12-07T21:08:46.747Z,7.50
2022-12-07T21:10:49.671Z,7.10
2022-12-07T21:12:55.608Z,7.20
2022-12-07T21:14:58.777Z,7.40
2022-12-07T21:17:01.568Z,7.30
2022-12-07T21:19:05.121Z,7.40
2022-12-07T21:21:10.541Z,7.40
2022-12-07T21:23:13.356Z,7.50
2022-12-07T21:25:16.140Z,7.60
2022-12-07T21:27:19.022Z,7.70
2022-12-07T21:29:40.738Z,7.70
2022-12-07T21:31:45.033Z,7.70
2022-12-07T21:33:48.380Z,7.70
2022-12-07T21:35:51.186Z,7.80
2022-12-07T21:37:55.315Z,7.70
2022-12-07T21:39:58.153Z,7.70
2022-12-07T21:42:00.964Z,7.60
2022-12-07T21:44:07.305Z,7.60
2022-12-07T21:46:10.354Z,7.60
2022-12-07T21:48:13.171Z,7.60
2022-12-07T21:50:16.000Z,7.60
2022-12-07T21:52:18.768Z,7.60
2022-12-07T21:54:25.813Z,7.60
2022-12-07T21:56:31.614Z,7.60
2022-12-07T21:58:34.417Z,7.40
2022-12-07T22:00:37.530Z,7.50
2022-12-07T22:02:40.494Z,7.50
2022-12-07T22:04:43.351Z,7.60
2022-12-07T22:06:47.242Z,7.50
2022-12-07T22:08:50.571Z,7.50
2022-12-07T22:10:54.788Z,7.60
2022-12-07T22:12:58.533Z,7.60
2022-12-07T22:15:06.599Z,7.60
2022-12-07T22:17:09.911Z,7.70
2022-12-07T22:19:13.103Z,7.60
2022-12-07T22:21:15.894Z,7.50
2022-12-07T22:23:18.692Z,7.50
2022-12-07T22:25:21.522Z,7.60
2022-12-07T22:27:25.621Z,7.40
2022-12-07T22:29:28.513Z,7.40
2022-12-07T22:31:31.458Z,7.40
2022-12-07T22:33:34.546Z,7.30
2022-12-07T22:35:37.461Z,7.40
2022-12-07T22:37:40.263Z,7.50
2022-12-07T22:39:43.067Z,7.50
2022-12-07T22:41:46.043Z,7.50
2022-12-07T22:43:50.439Z,7.50
2022-12-07T22:45:56.858Z,7.60
2022-12-07T22:47:59.659Z,7.60
2022-12-07T22:50:05.272Z,7.70
2022-12-07T22:52:08.462Z,7.70
2022-12-07T22:54:16.506Z,7.70
2022-12-07T22:56:19.670Z,7.70
2022-12-07T22:58:22.837Z,7.60
2022-12-07T23:00:26.992Z,7.60
2022-12-07T23:02:29.886Z,7.60
2022-12-07T23:04:33.123Z,7.70
2022-12-07T23:06:37.216Z,7.70
2022-12-07T23:08:40.032Z,7.80
2022-12-07T23:10:43.274Z,7.80
2022-12-07T23:13:09.040Z,7.80
2022-12-07T23:15:12.520Z,7.70
2022-12-07T23:17:16.785Z,7.50
2022-12-07T23:19:19.707Z,7.50
2022-12-07T23:21:22.561Z,7.50
2022-12-07T23:23:25.784Z,7.50
2022-12-07T23:25:28.746Z,7.60
2022-12-07T23:27:31.536Z,7.60
2022-12-07T23:29:34.473Z,7.60
2022-12-07T23:31:37.502Z,7.60
2022-12-07T23:33:42.484Z,7.60
2022-12-07T23:35:45.327Z,7.50
2022-12-07T23:37:48.122Z,7.60
2022-12-07T23:39:50.941Z,7.60
2022-12-07T23:41:53.693Z,7.70
2022-12-07T23:43:57.641Z,7.50
2022-12-07T23:46:00.930Z,7.50
2022-12-07T23:48:03.737Z,7.50
2022-12-07T23:50:09.624Z,7.40
2022-12-07T23:52:12.443Z,7.30
2022-12-07T23:54:15.299Z,7.30
2022-12-07T23:56:19.616Z,7.20
2022-12-07T23:58:22.441Z,7.30
